Buoy 46612

sailwx.info

Track history (hours):
 
Tides and Currents Weather Stations Pressure Air Temp Water Temp Dewpoint Dewpoint Depression Visibility Wind Speed Wind Dir Waves Ship Positions

Drifting buoy 46612

Last reported at 2015-Apr-01 18:00 UTC. Time now 2015-Apr-02 03:09 UTC.
Position N 29°41' W 139°10'.

Water temperature 19.5 ° C

Date/timePositionNaut miles runAvg speedWind from/ knotsBaromVisibWave heightAir tempDewpointWater temp
2015-Apr-01 18:00N 29°41' W 139°10'1 0.2 19.5
2015-Apr-01 14:00N 29°40' W 139°09'1 0.1 19.5
2015-Apr-01 05:00N 29°39' W 139°09'3 0.2 19.6
2015-Mar-31 16:00N 29°37' W 139°08'1 0.6 19.7
2015-Mar-31 15:00N 29°36' W 139°08'3 0.4 19.7
2015-Mar-31 07:00N 29°36' W 139°04'1 0.3 19.8
2015-Mar-31 03:00N 29°35' W 139°04'1 0.3 20.2
2015-Mar-31 01:00N 29°34' W 139°04'0 0.0 20.5
2015-Mar-31 00:00N 29°34' W 139°04'0 0.1 20.6
2015-Mar-30 22:00N 29°34' W 139°03'0 0.1 20.5
2015-Mar-30 21:00N 29°34' W 139°03'0 0.1 20.3
2015-Mar-30 20:00N 29°34' W 139°03'1 0.5 20.5
2015-Mar-30 19:00N 29°34' W 139°04'1 0.2 20.1
2015-Mar-30 15:00N 29°34' W 139°04'0 0.0 19.8
2015-Mar-30 14:00N 29°34' W 139°04'0 0.3 19.8
2015-Mar-30 13:00N 29°34' W 139°03'0 0.0 19.8
2015-Mar-30 07:00N 29°33' W 139°03'0 0.2 19.9
2015-Mar-30 06:00N 29°33' W 139°03'0 0.0 19.9
2015-Mar-30 05:00N 29°33' W 139°03'0 0.1 20.0
2015-Mar-30 04:00N 29°33' W 139°03'0 0.3 20.0
2015-Mar-30 03:00N 29°33' W 139°03'1 0.3 20.1
2015-Mar-30 01:00N 29°33' W 139°03'0 0.3 20.3
2015-Mar-30 00:00N 29°33' W 139°03'0 0.1 20.2
2015-Mar-29 23:00N 29°33' W 139°03'0 0.0 20.2
2015-Mar-29 22:00N 29°33' W 139°03'0 0.1 19.9
2015-Mar-29 19:00N 29°33' W 139°03'0 0.2 19.7
2015-Mar-29 18:00N 29°33' W 139°03'1 0.3 19.6
2015-Mar-29 16:00N 29°32' W 139°03'0 0.1 19.6
2015-Mar-29 14:00N 29°32' W 139°03'0 0.2 19.6
2015-Mar-29 13:00N 29°32' W 139°03'0 0.1 19.6
2015-Mar-29 10:00N 29°32' W 139°03'0 0.0 19.6
2015-Mar-29 08:00N 29°32' W 139°03'0 0.0 19.7
2015-Mar-29 07:00N 29°32' W 139°03'0 0.4 19.7
2015-Mar-29 06:00N 29°32' W 139°03'0 0.4 19.7
2015-Mar-29 05:00N 29°32' W 139°03'0 0.4 19.7
2015-Mar-29 04:00N 29°31' W 139°02'0 0.2 19.7
2015-Mar-29 03:00N 29°32' W 139°03'0 0.0 19.8
2015-Mar-29 02:00N 29°32' W 139°03'2 0.5 19.8
2015-Mar-28 22:00N 29°31' W 139°01'0 0.0 19.9
2015-Mar-28 21:00N 29°31' W 139°01'1 0.7 19.9
2015-Mar-28 20:00N 29°32' W 139°01'1 0.6 19.8
2015-Mar-28 19:00N 29°32' W 139°01'0 0.3 19.7
2015-Mar-28 18:00N 29°32' W 139°02'0 0.1 19.6
2015-Mar-28 14:00N 29°32' W 139°02'0 0.0 19.6
2015-Mar-28 13:00N 29°32' W 139°02'0 0.0 19.6
2015-Mar-28 10:00N 29°32' W 139°02'1 0.2 19.6
2015-Mar-28 06:00N 29°32' W 139°01'1 0.2 19.6
2015-Mar-28 02:00N 29°31' W 139°00'0 0.3 19.8
2015-Mar-28 01:00N 29°31' W 139°00'0 0.1 19.8
2015-Mar-28 00:00N 29°31' W 139°00'2 0.5 19.9
2015-Mar-27 21:00N 29°32' W 138°59'1 0.3 19.7
2015-Mar-27 19:00N 29°32' W 138°59'0 0.1 19.7
2015-Mar-27 16:00N 29°33' W 138°59'0 0.1 19.7
2015-Mar-27 14:00N 29°33' W 138°59'0 0.5 19.7
2015-Mar-27 13:00N 29°33' W 138°59'0 0.0 19.7
2015-Mar-27 12:00N 29°33' W 138°59'1 0.2 19.7
2015-Mar-27 07:00N 29°32' W 138°59'0 0.5 19.8
2015-Mar-27 06:00N 29°31' W 138°58'1 0.6 19.8
2015-Mar-27 05:00N 29°31' W 138°58'0 0.0 19.9
2015-Mar-27 04:00N 29°31' W 138°58'1 0.8 19.9
2015-Mar-27 03:00N 29°31' W 138°57'0 0.4 19.9
2015-Mar-27 02:00N 29°31' W 138°56'0 0.1 19.9
2015-Mar-27 00:00N 29°31' W 138°56'3 0.3 19.9
2015-Mar-26 14:00N 29°33' W 138°54'0 0.0 20.0
2015-Mar-26 05:00N 29°33' W 138°53'0 0.0 20.0
2015-Mar-26 04:00N 29°33' W 138°53'1 1.0 20.0
2015-Mar-26 03:00N 29°33' W 138°55'1 0.6 20.0
2015-Mar-26 02:00N 29°33' W 138°54'0 0.0 20.1
2015-Mar-26 01:00N 29°33' W 138°54'0 0.1 20.1
2015-Mar-25 20:00N 29°33' W 138°53'0 0.3 20.0
2015-Mar-25 19:00N 29°33' W 138°54'1 0.3 20.0
2015-Mar-25 17:00N 29°33' W 138°54'1 0.3 19.9
2015-Mar-25 15:00N 29°33' W 138°54'0 0.2 19.9
2015-Mar-25 14:00N 29°33' W 138°54'0 0.1 20.0
2015-Mar-25 11:00N 29°33' W 138°54'0 0.0 20.1
2015-Mar-25 07:00N 29°33' W 138°54'0 0.2 20.2
2015-Mar-25 06:00N 29°33' W 138°53'0 0.1 20.2
2015-Mar-25 03:00N 29°33' W 138°53'1 0.5 20.4
2015-Mar-25 02:00N 29°33' W 138°52'0 0.0 20.5
2015-Mar-25 01:00N 29°33' W 138°52'1 0.6 20.5
2015-Mar-25 00:00N 29°33' W 138°52'0 0.0 20.5
2015-Mar-24 21:00N 29°33' W 138°52'1 0.2 20.2
2015-Mar-24 16:00N 29°34' W 138°51'0 0.2 19.8
2015-Mar-24 15:00N 29°34' W 138°51'0 0.0 19.8
2015-Mar-24 04:00N 29°34' W 138°51'1 0.7 20.0
2015-Mar-24 03:00N 29°34' W 138°50'3 0.3 20.0
2015-Mar-23 15:00N 29°35' W 138°46'2 0.2 19.7
2015-Mar-23 06:00N 29°33' W 138°46'1 0.7 20.0
2015-Mar-23 05:00N 29°32' W 138°46'0 0.0 20.1
2015-Mar-23 04:00N 29°32' W 138°46'3 0.7 20.2
2015-Mar-23 00:00N 29°31' W 138°42'1 0.3 21.2
2015-Mar-22 22:00N 29°31' W 138°42'   21.5
Track history (hours):
 
Tides and Currents Weather Stations Pressure Air Temp Water Temp Dewpoint Dewpoint Depression Visibility Wind Speed Wind Dir Waves Ship Positions

Drifting buoy 46612

Last reported at 2015-Apr-01 18:00 UTC. Time now 2015-Apr-02 03:09 UTC.
Position N 29°41' W 139°10'.

Water temperature 19.5 ° C

Date/timePositionNaut miles runAvg speedWind from/ knotsBaromVisibWave heightAir tempDewpointWater temp
2015-Apr-01 18:00N 29°41' W 139°10'1 0.2 19.5
2015-Apr-01 14:00N 29°40' W 139°09'1 0.1 19.5
2015-Apr-01 05:00N 29°39' W 139°09'3 0.2 19.6
2015-Mar-31 16:00N 29°37' W 139°08'1 0.6 19.7
2015-Mar-31 15:00N 29°36' W 139°08'3 0.4 19.7
2015-Mar-31 07:00N 29°36' W 139°04'1 0.3 19.8
2015-Mar-31 03:00N 29°35' W 139°04'1 0.3 20.2
2015-Mar-31 01:00N 29°34' W 139°04'0 0.0 20.5
2015-Mar-31 00:00N 29°34' W 139°04'0 0.1 20.6
2015-Mar-30 22:00N 29°34' W 139°03'0 0.1 20.5
2015-Mar-30 21:00N 29°34' W 139°03'0 0.1 20.3
2015-Mar-30 20:00N 29°34' W 139°03'1 0.5 20.5
2015-Mar-30 19:00N 29°34' W 139°04'1 0.2 20.1
2015-Mar-30 15:00N 29°34' W 139°04'0 0.0 19.8
2015-Mar-30 14:00N 29°34' W 139°04'0 0.3 19.8
2015-Mar-30 13:00N 29°34' W 139°03'0 0.0 19.8
2015-Mar-30 07:00N 29°33' W 139°03'0 0.2 19.9
2015-Mar-30 06:00N 29°33' W 139°03'0 0.0 19.9
2015-Mar-30 05:00N 29°33' W 139°03'0 0.1 20.0
2015-Mar-30 04:00N 29°33' W 139°03'0 0.3 20.0
2015-Mar-30 03:00N 29°33' W 139°03'1 0.3 20.1
2015-Mar-30 01:00N 29°33' W 139°03'0 0.3 20.3
2015-Mar-30 00:00N 29°33' W 139°03'0 0.1 20.2
2015-Mar-29 23:00N 29°33' W 139°03'0 0.0 20.2
2015-Mar-29 22:00N 29°33' W 139°03'0 0.1 19.9
2015-Mar-29 19:00N 29°33' W 139°03'0 0.2 19.7
2015-Mar-29 18:00N 29°33' W 139°03'1 0.3 19.6
2015-Mar-29 16:00N 29°32' W 139°03'0 0.1 19.6
2015-Mar-29 14:00N 29°32' W 139°03'0 0.2 19.6
2015-Mar-29 13:00N 29°32' W 139°03'0 0.1 19.6
2015-Mar-29 10:00N 29°32' W 139°03'0 0.0 19.6
2015-Mar-29 08:00N 29°32' W 139°03'0 0.0 19.7
2015-Mar-29 07:00N 29°32' W 139°03'0 0.4 19.7
2015-Mar-29 06:00N 29°32' W 139°03'0 0.4 19.7
2015-Mar-29 05:00N 29°32' W 139°03'0 0.4 19.7
2015-Mar-29 04:00N 29°31' W 139°02'0 0.2 19.7
2015-Mar-29 03:00N 29°32' W 139°03'0 0.0 19.8
2015-Mar-29 02:00N 29°32' W 139°03'2 0.5 19.8
2015-Mar-28 22:00N 29°31' W 139°01'0 0.0 19.9
2015-Mar-28 21:00N 29°31' W 139°01'1 0.7 19.9
2015-Mar-28 20:00N 29°32' W 139°01'1 0.6 19.8
2015-Mar-28 19:00N 29°32' W 139°01'0 0.3 19.7
2015-Mar-28 18:00N 29°32' W 139°02'0 0.1 19.6
2015-Mar-28 14:00N 29°32' W 139°02'0 0.0 19.6
2015-Mar-28 13:00N 29°32' W 139°02'0 0.0 19.6
2015-Mar-28 10:00N 29°32' W 139°02'1 0.2 19.6
2015-Mar-28 06:00N 29°32' W 139°01'1 0.2 19.6
2015-Mar-28 02:00N 29°31' W 139°00'0 0.3 19.8
2015-Mar-28 01:00N 29°31' W 139°00'0 0.1 19.8
2015-Mar-28 00:00N 29°31' W 139°00'2 0.5 19.9
2015-Mar-27 21:00N 29°32' W 138°59'1 0.3 19.7
2015-Mar-27 19:00N 29°32' W 138°59'0 0.1 19.7
2015-Mar-27 16:00N 29°33' W 138°59'0 0.1 19.7
2015-Mar-27 14:00N 29°33' W 138°59'0 0.5 19.7
2015-Mar-27 13:00N 29°33' W 138°59'0 0.0 19.7
2015-Mar-27 12:00N 29°33' W 138°59'1 0.2 19.7
2015-Mar-27 07:00N 29°32' W 138°59'0 0.5 19.8
2015-Mar-27 06:00N 29°31' W 138°58'1 0.6 19.8
2015-Mar-27 05:00N 29°31' W 138°58'0 0.0 19.9
2015-Mar-27 04:00N 29°31' W 138°58'1 0.8 19.9
2015-Mar-27 03:00N 29°31' W 138°57'0 0.4 19.9
2015-Mar-27 02:00N 29°31' W 138°56'0 0.1 19.9
2015-Mar-27 00:00N 29°31' W 138°56'3 0.3 19.9
2015-Mar-26 14:00N 29°33' W 138°54'0 0.0 20.0
2015-Mar-26 05:00N 29°33' W 138°53'0 0.0 20.0
2015-Mar-26 04:00N 29°33' W 138°53'1 1.0 20.0
2015-Mar-26 03:00N 29°33' W 138°55'1 0.6 20.0
2015-Mar-26 02:00N 29°33' W 138°54'0 0.0 20.1
2015-Mar-26 01:00N 29°33' W 138°54'0 0.1 20.1
2015-Mar-25 20:00N 29°33' W 138°53'0 0.3 20.0
2015-Mar-25 19:00N 29°33' W 138°54'1 0.3 20.0
2015-Mar-25 17:00N 29°33' W 138°54'1 0.3 19.9
2015-Mar-25 15:00N 29°33' W 138°54'0 0.2 19.9
2015-Mar-25 14:00N 29°33' W 138°54'0 0.1 20.0
2015-Mar-25 11:00N 29°33' W 138°54'0 0.0 20.1
2015-Mar-25 07:00N 29°33' W 138°54'0 0.2 20.2
2015-Mar-25 06:00N 29°33' W 138°53'0 0.1 20.2
2015-Mar-25 03:00N 29°33' W 138°53'1 0.5 20.4
2015-Mar-25 02:00N 29°33' W 138°52'0 0.0 20.5
2015-Mar-25 01:00N 29°33' W 138°52'1 0.6 20.5
2015-Mar-25 00:00N 29°33' W 138°52'0 0.0 20.5
2015-Mar-24 21:00N 29°33' W 138°52'1 0.2 20.2
2015-Mar-24 16:00N 29°34' W 138°51'0 0.2 19.8
2015-Mar-24 15:00N 29°34' W 138°51'0 0.0 19.8
2015-Mar-24 04:00N 29°34' W 138°51'1 0.7 20.0
2015-Mar-24 03:00N 29°34' W 138°50'3 0.3 20.0
2015-Mar-23 15:00N 29°35' W 138°46'2 0.2 19.7
2015-Mar-23 06:00N 29°33' W 138°46'1 0.7 20.0
2015-Mar-23 05:00N 29°32' W 138°46'0 0.0 20.1
2015-Mar-23 04:00N 29°32' W 138°46'3 0.7 20.2
2015-Mar-23 00:00N 29°31' W 138°42'1 0.3 21.2
2015-Mar-22 22:00N 29°31' W 138°42'   21.5

Dump ship's entire track history